sensor_id;sensor_type;location;lat;lon;timestamp;pressure;altitude;pressure_sealevel;temperature;humidity
39141;BME280;24875;48.436;10.298;2022-08-01T00:02:26;96289.84;;;21.06;78.82
39141;BME280;24875;48.436;10.298;2022-08-01T00:04:53;96288.88;;;21.12;78.47
39141;BME280;24875;48.436;10.298;2022-08-01T00:07:19;96283.66;;;21.05;76.81
39141;BME280;24875;48.436;10.298;2022-08-01T00:09:47;96285.94;;;21.13;77.92
39141;BME280;24875;48.436;10.298;2022-08-01T00:12:14;96292.41;;;21.01;76.76
39141;BME280;24875;48.436;10.298;2022-08-01T00:14:40;96287.19;;;21.22;76.65
39141;BME280;24875;48.436;10.298;2022-08-01T00:17:07;96291.31;;;21.13;75.53
39141;BME280;24875;48.436;10.298;2022-08-01T00:19:33;96287.44;;;21.21;77.69
39141;BME280;24875;48.436;10.298;2022-08-01T00:22:00;96285.56;;;21.21;76.36
39141;BME280;24875;48.436;10.298;2022-08-01T00:24:26;96285.81;;;21.20;77.71
39141;BME280;24875;48.436;10.298;2022-08-01T00:26:54;96285.22;;;21.18;77.97
39141;BME280;24875;48.436;10.298;2022-08-01T00:29:21;96289.41;;;20.97;78.43
39141;BME280;24875;48.436;10.298;2022-08-01T00:31:47;96288.97;;;20.89;80.43
39141;BME280;24875;48.436;10.298;2022-08-01T00:34:14;96290.41;;;20.80;79.11
39141;BME280;24875;48.436;10.298;2022-08-01T00:36:40;96288.78;;;20.68;80.36
39141;BME280;24875;48.436;10.298;2022-08-01T00:39:07;96289.88;;;20.55;79.00
39141;BME280;24875;48.436;10.298;2022-08-01T00:41:33;96294.47;;;20.32;80.33
39141;BME280;24875;48.436;10.298;2022-08-01T00:44:03;96289.44;;;20.47;79.74
39141;BME280;24875;48.436;10.298;2022-08-01T00:46:30;96281.66;;;20.34;81.15
39141;BME280;24875;48.436;10.298;2022-08-01T00:48:57;96287.47;;;20.31;79.80
39141;BME280;24875;48.436;10.298;2022-08-01T00:51:24;96289.66;;;20.34;80.60
39141;BME280;24875;48.436;10.298;2022-08-01T00:53:51;96291.47;;;20.06;81.10
39141;BME280;24875;48.436;10.298;2022-08-01T00:56:19;96287.38;;;20.26;81.63
39141;BME280;24875;48.436;10.298;2022-08-01T00:58:45;96289.00;;;20.27;80.93
39141;BME280;24875;48.436;10.298;2022-08-01T01:01:13;96291.19;;;20.30;81.82
39141;BME280;24875;48.436;10.298;2022-08-01T01:03:40;96291.09;;;20.14;82.72
39141;BME280;24875;48.436;10.298;2022-08-01T01:06:14;96292.28;;;20.29;81.54
39141;BME280;24875;48.436;10.298;2022-08-01T01:08:55;96285.16;;;20.23;81.15
39141;BME280;24875;48.436;10.298;2022-08-01T01:11:26;96294.59;;;20.14;80.52
39141;BME280;24875;48.436;10.298;2022-08-01T01:14:00;96295.16;;;20.16;79.28
39141;BME280;24875;48.436;10.298;2022-08-01T01:16:32;96290.03;;;20.26;80.64
39141;BME280;24875;48.436;10.298;2022-08-01T01:19:01;96286.94;;;20.06;80.56
39141;BME280;24875;48.436;10.298;2022-08-01T01:21:39;96296.13;;;20.10;80.97
39141;BME280;24875;48.436;10.298;2022-08-01T01:24:21;96295.75;;;20.18;83.14
39141;BME280;24875;48.436;10.298;2022-08-01T01:26:55;96296.94;;;20.11;82.55
39141;BME280;24875;48.436;10.298;2022-08-01T01:29:28;96300.97;;;19.90;82.35
39141;BME280;24875;48.436;10.298;2022-08-01T01:32:01;96294.22;;;19.76;83.16
39141;BME280;24875;48.436;10.298;2022-08-01T01:34:29;96290.63;;;19.71;84.85
39141;BME280;24875;48.436;10.298;2022-08-01T01:36:59;96300.16;;;19.67;83.79
39141;BME280;24875;48.436;10.298;2022-08-01T01:39:28;96295.97;;;19.82;83.51
39141;BME280;24875;48.436;10.298;2022-08-01T01:41:56;96297.13;;;19.63;83.19
39141;BME280;24875;48.436;10.298;2022-08-01T01:44:26;96298.50;;;19.55;82.08
39141;BME280;24875;48.436;10.298;2022-08-01T01:46:53;96294.94;;;19.60;82.76
39141;BME280;24875;48.436;10.298;2022-08-01T01:49:24;96293.53;;;19.58;83.72
39141;BME280;24875;48.436;10.298;2022-08-01T01:51:54;96289.69;;;19.65;83.48
39141;BME280;24875;48.436;10.298;2022-08-01T01:54:22;96291.97;;;19.39;83.10
39141;BME280;24875;48.436;10.298;2022-08-01T01:56:50;96289.41;;;19.33;83.13
39141;BME280;24875;48.436;10.298;2022-08-01T01:59:19;96293.28;;;19.48;82.59
39141;BME280;24875;48.436;10.298;2022-08-01T02:01:49;96298.38;;;19.38;84.35
39141;BME280;24875;48.436;10.298;2022-08-01T02:04:18;96294.47;;;19.11;82.89
39141;BME280;24875;48.436;10.298;2022-08-01T02:06:46;96295.16;;;19.07;86.04
39141;BME280;24875;48.436;10.298;2022-08-01T02:09:16;96291.50;;;19.31;83.70
39141;BME280;24875;48.436;10.298;2022-08-01T02:11:44;96298.69;;;19.19;83.27
39141;BME280;24875;48.436;10.298;2022-08-01T02:14:12;96295.94;;;19.37;84.97
39141;BME280;24875;48.436;10.298;2022-08-01T02:16:40;96293.84;;;19.39;83.63
39141;BME280;24875;48.436;10.298;2022-08-01T02:19:09;96294.81;;;19.56;84.79
39141;BME280;24875;48.436;10.298;2022-08-01T02:21:39;96298.03;;;19.57;82.25
39141;BME280;24875;48.436;10.298;2022-08-01T02:24:13;96302.47;;;19.63;82.28
39141;BME280;24875;48.436;10.298;2022-08-01T02:26:44;96301.56;;;19.69;82.00
39141;BME280;24875;48.436;10.298;2022-08-01T02:29:16;96311.41;;;19.69;79.60
39141;BME280;24875;48.436;10.298;2022-08-01T02:31:44;96305.28;;;19.68;79.21
39141;BME280;24875;48.436;10.298;2022-08-01T02:34:17;96308.31;;;19.83;80.64
39141;BME280;24875;48.436;10.298;2022-08-01T02:36:45;96308.31;;;19.83;80.87
39141;BME280;24875;48.436;10.298;2022-08-01T02:39:16;96311.22;;;19.82;79.04
39141;BME280;24875;48.436;10.298;2022-08-01T02:41:46;96315.84;;;19.75;80.32
39141;BME280;24875;48.436;10.298;2022-08-01T02:44:18;96318.66;;;19.80;78.57
39141;BME280;24875;48.436;10.298;2022-08-01T02:46:52;96319.25;;;19.82;79.72
39141;BME280;24875;48.436;10.298;2022-08-01T02:49:22;96313.06;;;19.70;78.49
39141;BME280;24875;48.436;10.298;2022-08-01T02:51:52;96319.13;;;19.77;78.99
39141;BME280;24875;48.436;10.298;2022-08-01T02:54:21;96307.28;;;19.73;78.31
39141;BME280;24875;48.436;10.298;2022-08-01T02:56:50;96309.59;;;19.81;78.21
39141;BME280;24875;48.436;10.298;2022-08-01T02:59:21;96312.31;;;19.92;77.18
39141;BME280;24875;48.436;10.298;2022-08-01T03:01:51;96310.56;;;19.98;77.95
39141;BME280;24875;48.436;10.298;2022-08-01T03:04:21;96311.56;;;19.85;77.90
39141;BME280;24875;48.436;10.298;2022-08-01T03:06:48;96308.78;;;19.92;77.97
39141;BME280;24875;48.436;10.298;2022-08-01T03:09:18;96312.53;;;19.91;77.59
39141;BME280;24875;48.436;10.298;2022-08-01T03:11:46;96321.94;;;19.93;79.53
39141;BME280;24875;48.436;10.298;2022-08-01T03:14:15;96318.03;;;19.66;78.21
39141;BME280;24875;48.436;10.298;2022-08-01T03:16:44;96326.69;;;19.80;79.45
39141;BME280;24875;48.436;10.298;2022-08-01T03:19:13;96323.03;;;19.52;78.89
39141;BME280;24875;48.436;10.298;2022-08-01T03:21:43;96321.88;;;19.48;80.13
39141;BME280;24875;48.436;10.298;2022-08-01T03:24:11;96326.34;;;19.36;79.78
39141;BME280;24875;48.436;10.298;2022-08-01T03:26:39;96327.13;;;19.13;80.65
39141;BME280;24875;48.436;10.298;2022-08-01T03:29:08;96327.28;;;19.30;81.24
39141;BME280;24875;48.436;10.298;2022-08-01T03:31:38;96329.19;;;19.11;81.25
39141;BME280;24875;48.436;10.298;2022-08-01T03:34:08;96327.13;;;19.13;82.04
39141;BME280;24875;48.436;10.298;2022-08-01T03:36:45;96332.56;;;19.07;81.46
39141;BME280;24875;48.436;10.298;2022-08-01T03:39:14;96332.09;;;19.10;83.69
39141;BME280;24875;48.436;10.298;2022-08-01T03:41:49;96336.41;;;18.93;82.21
39141;BME280;24875;48.436;10.298;2022-08-01T03:44:20;96334.03;;;19.03;83.64
39141;BME280;24875;48.436;10.298;2022-08-01T03:46:54;96341.75;;;18.93;82.71
39141;BME280;24875;48.436;10.298;2022-08-01T03:49:25;96340.84;;;18.99;83.54
39141;BME280;24875;48.436;10.298;2022-08-01T03:51:54;96341.97;;;19.09;83.27
39141;BME280;24875;48.436;10.298;2022-08-01T03:54:24;96346.53;;;19.20;81.86
39141;BME280;24875;48.436;10.298;2022-08-01T03:56:51;96355.47;;;19.14;80.35
39141;BME280;24875;48.436;10.298;2022-08-01T03:59:19;96343.91;;;19.32;80.17
39141;BME280;24875;48.436;10.298;2022-08-01T04:01:47;96347.50;;;19.37;79.87
39141;BME280;24875;48.436;10.298;2022-08-01T04:04:14;96345.06;;;19.36;79.69
39141;BME280;24875;48.436;10.298;2022-08-01T04:06:41;96341.69;;;19.29;80.37
39141;BME280;24875;48.436;10.298;2022-08-01T04:09:09;96343.31;;;19.30;80.33
39141;BME280;24875;48.436;10.298;2022-08-01T04:11:38;96344.84;;;19.37;80.43
39141;BME280;24875;48.436;10.298;2022-08-01T04:14:04;96346.19;;;19.28;80.57
39141;BME280;24875;48.436;10.298;2022-08-01T04:16:31;96349.84;;;19.34;80.23
39141;BME280;24875;48.436;10.298;2022-08-01T04:18:57;96345.31;;;19.34;79.77
39141;BME280;24875;48.436;10.298;2022-08-01T04:21:26;96350.91;;;19.44;79.92
39141;BME280;24875;48.436;10.298;2022-08-01T04:23:59;96351.41;;;19.53;79.59
39141;BME280;24875;48.436;10.298;2022-08-01T04:26:30;96353.38;;;19.57;79.20
39141;BME280;24875;48.436;10.298;2022-08-01T04:29:00;96359.66;;;19.62;79.24
39141;BME280;24875;48.436;10.298;2022-08-01T04:31:28;96355.94;;;19.63;79.09
39141;BME280;24875;48.436;10.298;2022-08-01T04:33:57;96362.03;;;19.70;78.63
39141;BME280;24875;48.436;10.298;2022-08-01T04:36:25;96358.63;;;19.75;78.61
39141;BME280;24875;48.436;10.298;2022-08-01T04:38:55;96360.50;;;19.74;78.75
39141;BME280;24875;48.436;10.298;2022-08-01T04:41:24;96363.19;;;19.74;78.98
39141;BME280;24875;48.436;10.298;2022-08-01T04:43:51;96364.47;;;19.72;79.89
39141;BME280;24875;48.436;10.298;2022-08-01T04:46:21;96369.50;;;19.91;78.43
39141;BME280;24875;48.436;10.298;2022-08-01T04:48:49;96368.59;;;19.97;78.88
39141;BME280;24875;48.436;10.298;2022-08-01T04:51:17;96370.75;;;19.89;78.84
39141;BME280;24875;48.436;10.298;2022-08-01T04:53:47;96377.75;;;19.90;78.58
39141;BME280;24875;48.436;10.298;2022-08-01T04:56:15;96380.22;;;19.91;79.63
39141;BME280;24875;48.436;10.298;2022-08-01T04:58:42;96384.53;;;20.04;78.99
39141;BME280;24875;48.436;10.298;2022-08-01T05:01:09;96382.78;;;20.09;78.27
39141;BME280;24875;48.436;10.298;2022-08-01T05:03:37;96386.88;;;20.23;78.05
39141;BME280;24875;48.436;10.298;2022-08-01T05:06:03;96377.91;;;20.29;77.20
39141;BME280;24875;48.436;10.298;2022-08-01T05:08:30;96382.19;;;20.30;77.14
39141;BME280;24875;48.436;10.298;2022-08-01T05:10:57;96379.88;;;20.45;75.83
39141;BME280;24875;48.436;10.298;2022-08-01T05:13:23;96385.44;;;20.55;75.90
39141;BME280;24875;48.436;10.298;2022-08-01T05:15:50;96395.00;;;20.62;75.20
39141;BME280;24875;48.436;10.298;2022-08-01T05:18:17;96389.97;;;20.66;74.96
39141;BME280;24875;48.436;10.298;2022-08-01T05:20:45;96393.34;;;20.84;75.48
39141;BME280;24875;48.436;10.298;2022-08-01T05:23:12;96390.91;;;20.83;74.76
39141;BME280;24875;48.436;10.298;2022-08-01T05:25:38;96394.28;;;20.78;75.22
39141;BME280;24875;48.436;10.298;2022-08-01T05:28:05;96398.84;;;20.78;75.99
39141;BME280;24875;48.436;10.298;2022-08-01T05:30:31;96399.88;;;20.65;76.04
39141;BME280;24875;48.436;10.298;2022-08-01T05:32:58;96395.81;;;20.74;76.52
39141;BME280;24875;48.436;10.298;2022-08-01T05:35:24;96401.53;;;20.78;76.75
39141;BME280;24875;48.436;10.298;2022-08-01T05:37:52;96401.25;;;20.90;76.74
39141;BME280;24875;48.436;10.298;2022-08-01T05:40:19;96405.34;;;20.82;75.29
39141;BME280;24875;48.436;10.298;2022-08-01T05:42:45;96406.97;;;20.94;75.34
39141;BME280;24875;48.436;10.298;2022-08-01T05:45:12;96410.94;;;20.91;74.76
39141;BME280;24875;48.436;10.298;2022-08-01T05:47:38;96413.72;;;20.96;74.41
39141;BME280;24875;48.436;10.298;2022-08-01T05:50:05;96404.25;;;21.05;74.50
39141;BME280;24875;48.436;10.298;2022-08-01T05:52:32;96411.03;;;21.24;73.97
39141;BME280;24875;48.436;10.298;2022-08-01T05:55:00;96403.91;;;21.41;73.67
39141;BME280;24875;48.436;10.298;2022-08-01T05:57:26;96404.75;;;21.30;72.13
39141;BME280;24875;48.436;10.298;2022-08-01T05:59:53;96401.56;;;21.33;73.43
39141;BME280;24875;48.436;10.298;2022-08-01T06:02:19;96400.81;;;21.21;72.51
39141;BME280;24875;48.436;10.298;2022-08-01T06:04:46;96404.09;;;21.40;72.11
39141;BME280;24875;48.436;10.298;2022-08-01T06:07:12;96408.59;;;21.62;72.10
39141;BME280;24875;48.436;10.298;2022-08-01T06:09:38;96413.00;;;21.68;72.41
39141;BME280;24875;48.436;10.298;2022-08-01T06:12:07;96408.28;;;21.75;73.25
39141;BME280;24875;48.436;10.298;2022-08-01T06:14:33;96409.09;;;21.75;72.53
39141;BME280;24875;48.436;10.298;2022-08-01T06:17:00;96411.53;;;21.60;71.33
39141;BME280;24875;48.436;10.298;2022-08-01T06:19:26;96420.63;;;21.59;70.96
39141;BME280;24875;48.436;10.298;2022-08-01T06:21:52;96420.63;;;21.59;71.21
39141;BME280;24875;48.436;10.298;2022-08-01T06:24:19;96425.53;;;21.79;71.29
39141;BME280;24875;48.436;10.298;2022-08-01T06:26:47;96428.72;;;21.92;71.49
39141;BME280;24875;48.436;10.298;2022-08-01T06:29:15;96430.75;;;21.85;69.86
39141;BME280;24875;48.436;10.298;2022-08-01T06:31:42;96429.00;;;21.63;70.43
39141;BME280;24875;48.436;10.298;2022-08-01T06:34:08;96431.13;;;21.77;70.71
39141;BME280;24875;48.436;10.298;2022-08-01T06:36:35;96424.59;;;21.57;69.92
39141;BME280;24875;48.436;10.298;2022-08-01T06:39:02;96428.13;;;21.74;69.51
39141;BME280;24875;48.436;10.298;2022-08-01T06:41:28;96423.91;;;21.94;69.97
39141;BME280;24875;48.436;10.298;2022-08-01T06:43:55;96432.72;;;21.90;69.75
39141;BME280;24875;48.436;10.298;2022-08-01T06:46:22;96424.50;;;21.96;69.18
39141;BME280;24875;48.436;10.298;2022-08-01T06:48:49;96430.50;;;21.87;70.18
39141;BME280;24875;48.436;10.298;2022-08-01T06:51:15;96426.53;;;22.05;69.43
39141;BME280;24875;48.436;10.298;2022-08-01T06:53:45;96424.91;;;22.21;70.04
39141;BME280;24875;48.436;10.298;2022-08-01T06:56:11;96421.28;;;22.43;70.46
39141;BME280;24875;48.436;10.298;2022-08-01T06:58:38;96420.34;;;22.54;71.24
39141;BME280;24875;48.436;10.298;2022-08-01T07:01:05;96415.66;;;22.61;68.91
39141;BME280;24875;48.436;10.298;2022-08-01T07:03:34;96420.84;;;22.67;68.36
39141;BME280;24875;48.436;10.298;2022-08-01T07:06:01;96412.03;;;22.72;67.63
39141;BME280;24875;48.436;10.298;2022-08-01T07:08:28;96418.84;;;22.79;68.07
39141;BME280;24875;48.436;10.298;2022-08-01T07:10:54;96418.66;;;22.86;68.25
39141;BME280;24875;48.436;10.298;2022-08-01T07:13:24;96420.31;;;22.87;67.25
39141;BME280;24875;48.436;10.298;2022-08-01T07:15:51;96411.78;;;23.11;66.79
39141;BME280;24875;48.436;10.298;2022-08-01T07:18:18;96407.59;;;23.20;68.90
39141;BME280;24875;48.436;10.298;2022-08-01T07:20:46;96403.81;;;23.42;68.30
39141;BME280;24875;48.436;10.298;2022-08-01T07:23:13;96403.97;;;23.57;67.05
39141;BME280;24875;48.436;10.298;2022-08-01T07:25:39;96405.06;;;23.56;68.19
39141;BME280;24875;48.436;10.298;2022-08-01T07:28:06;96393.84;;;23.64;66.47
39141;BME280;24875;48.436;10.298;2022-08-01T07:30:33;96388.13;;;23.82;65.38
39141;BME280;24875;48.436;10.298;2022-08-01T07:33:00;96393.44;;;23.77;65.10
39141;BME280;24875;48.436;10.298;2022-08-01T07:35:26;96389.03;;;23.92;65.90
39141;BME280;24875;48.436;10.298;2022-08-01T07:37:54;96400.69;;;24.03;64.32
39141;BME280;24875;48.436;10.298;2022-08-01T07:40:21;96399.19;;;24.17;64.31
39141;BME280;24875;48.436;10.298;2022-08-01T07:42:47;96399.53;;;23.94;64.02
39141;BME280;24875;48.436;10.298;2022-08-01T07:45:14;96388.22;;;24.28;63.69
39141;BME280;24875;48.436;10.298;2022-08-01T07:47:41;96394.09;;;24.20;64.47
39141;BME280;24875;48.436;10.298;2022-08-01T07:50:08;96383.84;;;24.49;63.93
39141;BME280;24875;48.436;10.298;2022-08-01T07:52:34;96392.28;;;24.31;63.30
39141;BME280;24875;48.436;10.298;2022-08-01T07:55:03;96386.63;;;24.63;64.79
39141;BME280;24875;48.436;10.298;2022-08-01T07:57:30;96396.94;;;24.35;61.43
39141;BME280;24875;48.436;10.298;2022-08-01T07:59:56;96388.75;;;24.61;62.03
39141;BME280;24875;48.436;10.298;2022-08-01T08:02:23;96389.88;;;24.65;61.13
39141;BME280;24875;48.436;10.298;2022-08-01T08:04:49;96395.06;;;24.72;60.87
39141;BME280;24875;48.436;10.298;2022-08-01T08:07:16;96387.22;;;24.75;59.66
39141;BME280;24875;48.436;10.298;2022-08-01T08:09:42;96382.66;;;24.71;61.37
39141;BME280;24875;48.436;10.298;2022-08-01T08:12:10;96382.03;;;25.05;60.89
39141;BME280;24875;48.436;10.298;2022-08-01T08:14:37;96386.34;;;25.06;60.31
39141;BME280;24875;48.436;10.298;2022-08-01T08:17:04;96384.63;;;24.90;60.32
39141;BME280;24875;48.436;10.298;2022-08-01T08:19:31;96378.84;;;25.13;59.16
39141;BME280;24875;48.436;10.298;2022-08-01T08:21:58;96383.69;;;25.16;58.92
39141;BME280;24875;48.436;10.298;2022-08-01T08:24:25;96373.44;;;25.13;59.87
39141;BME280;24875;48.436;10.298;2022-08-01T08:26:54;96380.53;;;25.39;59.59
39141;BME280;24875;48.436;10.298;2022-08-01T08:29:22;96382.63;;;25.17;57.71
39141;BME280;24875;48.436;10.298;2022-08-01T08:31:49;96375.84;;;25.10;57.55
39141;BME280;24875;48.436;10.298;2022-08-01T08:34:17;96371.31;;;25.25;59.83
39141;BME280;24875;48.436;10.298;2022-08-01T08:36:43;96371.69;;;25.58;58.02
39141;BME280;24875;48.436;10.298;2022-08-01T08:39:10;96378.13;;;25.37;57.22
39141;BME280;24875;48.436;10.298;2022-08-01T08:41:36;96371.06;;;25.31;57.56
39141;BME280;24875;48.436;10.298;2022-08-01T08:44:04;96376.50;;;25.46;56.95
39141;BME280;24875;48.436;10.298;2022-08-01T08:46:33;96377.97;;;25.83;58.84
39141;BME280;24875;48.436;10.298;2022-08-01T08:49:00;96370.13;;;25.77;56.57
39141;BME280;24875;48.436;10.298;2022-08-01T08:51:30;96377.09;;;25.68;56.59
39141;BME280;24875;48.436;10.298;2022-08-01T08:53:58;96375.53;;;25.82;56.87
39141;BME280;24875;48.436;10.298;2022-08-01T08:56:25;96383.94;;;25.90;58.17
39141;BME280;24875;48.436;10.298;2022-08-01T08:58:55;96382.56;;;26.08;57.60
39141;BME280;24875;48.436;10.298;2022-08-01T09:01:22;96383.66;;;26.12;57.75
39141;BME280;24875;48.436;10.298;2022-08-01T09:03:50;96381.28;;;26.35;57.33
39141;BME280;24875;48.436;10.298;2022-08-01T09:06:16;96384.75;;;26.06;55.01
39141;BME280;24875;48.436;10.298;2022-08-01T09:08:43;96379.88;;;26.18;54.58
39141;BME280;24875;48.436;10.298;2022-08-01T09:11:10;96386.91;;;26.43;54.78
39141;BME280;24875;48.436;10.298;2022-08-01T09:13:36;96390.97;;;26.61;56.18
39141;BME280;24875;48.436;10.298;2022-08-01T09:16:04;96383.34;;;26.83;55.82
39141;BME280;24875;48.436;10.298;2022-08-01T09:18:33;96383.06;;;26.89;52.25
39141;BME280;24875;48.436;10.298;2022-08-01T09:21:09;96386.31;;;26.91;53.39
39141;BME280;24875;48.436;10.298;2022-08-01T09:23:38;96375.78;;;26.75;52.62
39141;BME280;24875;48.436;10.298;2022-08-01T09:26:08;96380.03;;;27.15;52.76
39141;BME280;24875;48.436;10.298;2022-08-01T09:28:35;96382.25;;;26.94;52.48
39141;BME280;24875;48.436;10.298;2022-08-01T09:31:06;96378.72;;;26.98;55.56
39141;BME280;24875;48.436;10.298;2022-08-01T09:33:49;96386.03;;;26.88;56.79
39141;BME280;24875;48.436;10.298;2022-08-01T09:36:17;96373.59;;;26.97;52.36
39141;BME280;24875;48.436;10.298;2022-08-01T09:38:44;96372.50;;;27.08;51.57
39141;BME280;24875;48.436;10.298;2022-08-01T09:41:10;96364.53;;;27.31;52.44
39141;BME280;24875;48.436;10.298;2022-08-01T09:43:37;96372.00;;;27.54;50.57
39141;BME280;24875;48.436;10.298;2022-08-01T09:46:09;96372.47;;;27.70;50.40
39141;BME280;24875;48.436;10.298;2022-08-01T09:48:37;96365.69;;;27.73;49.46
39141;BME280;24875;48.436;10.298;2022-08-01T09:51:05;96368.81;;;27.90;49.47
39141;BME280;24875;48.436;10.298;2022-08-01T09:53:47;96372.59;;;28.89;50.60
39141;BME280;24875;48.436;10.298;2022-08-01T09:56:15;96362.91;;;28.21;48.17
39141;BME280;24875;48.436;10.298;2022-08-01T09:58:49;96367.69;;;29.14;49.64
39141;BME280;24875;48.436;10.298;2022-08-01T10:01:16;96359.78;;;28.66;49.92
39141;BME280;24875;48.436;10.298;2022-08-01T10:03:43;96364.59;;;28.74;48.66
39141;BME280;24875;48.436;10.298;2022-08-01T10:06:19;96351.06;;;28.69;49.75
39141;BME280;24875;48.436;10.298;2022-08-01T10:08:48;96361.38;;;29.18;49.12
39141;BME280;24875;48.436;10.298;2022-08-01T10:11:15;96356.66;;;28.82;47.54
39141;BME280;24875;48.436;10.298;2022-08-01T10:13:42;96349.03;;;28.84;47.39
39141;BME280;24875;48.436;10.298;2022-08-01T10:16:09;96352.22;;;28.91;49.29
39141;BME280;24875;48.436;10.298;2022-08-01T10:18:40;96354.66;;;28.64;46.98
39141;BME280;24875;48.436;10.298;2022-08-01T10:21:07;96362.38;;;28.19;47.97
39141;BME280;24875;48.436;10.298;2022-08-01T10:23:36;96358.09;;;28.46;46.89
39141;BME280;24875;48.436;10.298;2022-08-01T10:26:04;96346.63;;;28.26;46.69
39141;BME280;24875;48.436;10.298;2022-08-01T10:28:34;96350.63;;;28.33;47.00
39141;BME280;24875;48.436;10.298;2022-08-01T10:31:02;96344.13;;;28.30;45.88
39141;BME280;24875;48.436;10.298;2022-08-01T10:33:29;96340.47;;;28.16;46.29
39141;BME280;24875;48.436;10.298;2022-08-01T10:35:56;96345.00;;;27.87;47.18
39141;BME280;24875;48.436;10.298;2022-08-01T10:38:23;96344.22;;;27.33;50.05
39141;BME280;24875;48.436;10.298;2022-08-01T10:40:50;96343.97;;;27.30;48.47
39141;BME280;24875;48.436;10.298;2022-08-01T10:43:18;96341.94;;;27.55;49.42
39141;BME280;24875;48.436;10.298;2022-08-01T10:45:44;96338.16;;;27.61;47.47
39141;BME280;24875;48.436;10.298;2022-08-01T10:48:14;96337.22;;;27.75;48.57
39141;BME280;24875;48.436;10.298;2022-08-01T10:50:46;96343.69;;;27.79;48.41
39141;BME280;24875;48.436;10.298;2022-08-01T10:53:15;96340.19;;;27.79;47.04
39141;BME280;24875;48.436;10.298;2022-08-01T10:55:57;96337.84;;;28.01;46.18
39141;BME280;24875;48.436;10.298;2022-08-01T10:58:28;96329.28;;;28.50;47.97
39141;BME280;24875;48.436;10.298;2022-08-01T11:01:14;96327.09;;;29.04;46.08
39141;BME280;24875;48.436;10.298;2022-08-01T11:03:41;96321.53;;;28.67;48.00
39141;BME280;24875;48.436;10.298;2022-08-01T11:06:15;96320.22;;;28.36;47.68
39141;BME280;24875;48.436;10.298;2022-08-01T11:08:50;96317.78;;;28.87;48.31
39141;BME280;24875;48.436;10.298;2022-08-01T11:11:17;96314.16;;;28.44;47.46
39141;BME280;24875;48.436;10.298;2022-08-01T11:14:03;96318.78;;;28.16;48.80
39141;BME280;24875;48.436;10.298;2022-08-01T11:16:34;96313.53;;;27.48;48.09
39141;BME280;24875;48.436;10.298;2022-08-01T11:19:01;96315.44;;;27.57;50.55
39141;BME280;24875;48.436;10.298;2022-08-01T11:21:58;96308.28;;;28.37;46.70
39141;BME280;24875;48.436;10.298;2022-08-01T11:24:54;96312.00;;;28.46;45.93
39141;BME280;24875;48.436;10.298;2022-08-01T11:27:24;96310.81;;;28.52;44.79
39141;BME280;24875;48.436;10.298;2022-08-01T11:30:22;96309.78;;;28.48;44.28
39141;BME280;24875;48.436;10.298;2022-08-01T11:32:52;96301.13;;;28.46;45.13
39141;BME280;24875;48.436;10.298;2022-08-01T11:35:19;96301.41;;;28.73;45.49
39141;BME280;24875;48.436;10.298;2022-08-01T11:37:49;96301.81;;;28.33;46.20
39141;BME280;24875;48.436;10.298;2022-08-01T11:40:18;96304.66;;;28.14;45.70
39141;BME280;24875;48.436;10.298;2022-08-01T11:42:45;96292.72;;;28.48;46.66
39141;BME280;24875;48.436;10.298;2022-08-01T11:45:12;96290.47;;;28.55;45.14
39141;BME280;24875;48.436;10.298;2022-08-01T11:47:50;96292.22;;;28.69;43.48
39141;BME280;24875;48.436;10.298;2022-08-01T11:50:30;96282.88;;;29.03;43.35
39141;BME280;24875;48.436;10.298;2022-08-01T11:52:57;96284.78;;;28.80;43.65
39141;BME280;24875;48.436;10.298;2022-08-01T11:55:26;96283.22;;;28.74;43.97
39141;BME280;24875;48.436;10.298;2022-08-01T11:57:59;96278.84;;;29.01;44.67
39141;BME280;24875;48.436;10.298;2022-08-01T12:00:25;96276.91;;;28.83;44.29
39141;BME280;24875;48.436;10.298;2022-08-01T12:02:58;96278.44;;;29.31;43.38
39141;BME280;24875;48.436;10.298;2022-08-01T12:05:26;96277.13;;;29.47;43.00
39141;BME280;24875;48.436;10.298;2022-08-01T12:07:54;96278.75;;;29.48;41.02
39141;BME280;24875;48.436;10.298;2022-08-01T12:10:23;96260.13;;;29.91;39.48
39141;BME280;24875;48.436;10.298;2022-08-01T12:12:51;96259.91;;;30.06;41.70
39141;BME280;24875;48.436;10.298;2022-08-01T12:15:20;96265.50;;;29.96;39.96
39141;BME280;24875;48.436;10.298;2022-08-01T12:17:48;96261.13;;;29.63;40.85
39141;BME280;24875;48.436;10.298;2022-08-01T12:20:21;96259.25;;;29.46;41.50
39141;BME280;24875;48.436;10.298;2022-08-01T12:22:52;96254.59;;;29.28;41.78
39141;BME280;24875;48.436;10.298;2022-08-01T12:25:19;96250.91;;;29.19;42.59
39141;BME280;24875;48.436;10.298;2022-08-01T12:27:46;96258.53;;;28.75;41.61
39141;BME280;24875;48.436;10.298;2022-08-01T12:30:14;96262.75;;;28.86;41.32
39141;BME280;24875;48.436;10.298;2022-08-01T12:32:43;96265.75;;;28.56;42.26
39141;BME280;24875;48.436;10.298;2022-08-01T12:35:12;96267.63;;;28.37;43.84
39141;BME280;24875;48.436;10.298;2022-08-01T12:37:41;96263.16;;;27.90;48.25
39141;BME280;24875;48.436;10.298;2022-08-01T12:40:10;96254.72;;;27.63;50.37
39141;BME280;24875;48.436;10.298;2022-08-01T12:42:37;96262.38;;;27.46;49.30
39141;BME280;24875;48.436;10.298;2022-08-01T12:45:07;96270.06;;;27.34;49.22
39141;BME280;24875;48.436;10.298;2022-08-01T12:47:35;96286.16;;;27.11;49.65
39141;BME280;24875;48.436;10.298;2022-08-01T12:50:03;96306.25;;;26.85;57.47
39141;BME280;24875;48.436;10.298;2022-08-01T12:52:31;96326.53;;;24.68;78.95
39141;BME280;24875;48.436;10.298;2022-08-01T12:55:10;96330.84;;;23.08;86.90
39141;BME280;24875;48.436;10.298;2022-08-01T12:57:39;96358.47;;;22.44;94.25
39141;BME280;24875;48.436;10.298;2022-08-01T13:00:11;96381.34;;;22.30;95.83